createdAt,value
2023-02-19T00:01:06.430Z,100.00
2023-02-19T00:03:32.900Z,100.00
2023-02-19T00:06:02.074Z,100.00
2023-02-19T00:08:31.259Z,100.00
2023-02-19T00:11:05.734Z,100.00
2023-02-19T00:13:36.008Z,100.00
2023-02-19T00:16:25.216Z,100.00
2023-02-19T00:18:53.440Z,100.00
2023-02-19T00:21:20.600Z,100.00
2023-02-19T00:23:54.383Z,100.00
2023-02-19T00:26:21.817Z,100.00
2023-02-19T00:28:49.949Z,100.00
2023-02-19T00:31:33.032Z,100.00
2023-02-19T00:34:02.193Z,100.00
2023-02-19T00:36:30.477Z,100.00
2023-02-19T00:38:57.150Z,100.00
2023-02-19T00:41:24.746Z,100.00
2023-02-19T00:44:02.947Z,100.00
2023-02-19T00:46:32.841Z,100.00
2023-02-19T00:48:59.616Z,100.00
2023-02-19T00:51:29.177Z,100.00
2023-02-19T00:53:55.621Z,100.00
2023-02-19T00:56:22.584Z,100.00
2023-02-19T00:58:49.806Z,100.00
2023-02-19T01:01:16.854Z,100.00
2023-02-19T01:03:43.631Z,100.00
2023-02-19T01:06:11.867Z,100.00
2023-02-19T01:08:38.422Z,100.00
2023-02-19T01:11:06.753Z,100.00
2023-02-19T01:13:33.853Z,100.00
2023-02-19T01:16:21.872Z,100.00
2023-02-19T01:18:48.850Z,100.00
2023-02-19T01:21:18.317Z,100.00
2023-02-19T01:23:44.873Z,100.00
2023-02-19T01:26:14.385Z,100.00
2023-02-19T01:28:40.985Z,100.00
2023-02-19T01:31:12.144Z,100.00
2023-02-19T01:33:39.035Z,100.00
2023-02-19T01:36:06.763Z,100.00
2023-02-19T01:38:33.378Z,100.00
2023-02-19T01:41:03.270Z,100.00
2023-02-19T01:43:32.795Z,100.00
2023-02-19T01:45:59.580Z,100.00
2023-02-19T01:48:33.092Z,100.00
2023-02-19T01:51:09.731Z,100.00
2023-02-19T01:53:42.277Z,100.00
2023-02-19T01:56:09.869Z,100.00
2023-02-19T01:58:37.963Z,100.00
2023-02-19T02:01:07.197Z,100.00
2023-02-19T02:03:35.448Z,100.00
2023-02-19T02:06:07.317Z,100.00
2023-02-19T02:08:52.932Z,100.00
2023-02-19T02:11:20.590Z,100.00
2023-02-19T02:13:48.391Z,100.00
2023-02-19T02:16:23.332Z,100.00
2023-02-19T02:19:05.942Z,100.00
2023-02-19T02:21:56.025Z,100.00
2023-02-19T02:24:25.483Z,100.00
2023-02-19T02:27:11.583Z,100.00
2023-02-19T02:30:02.785Z,100.00
2023-02-19T02:32:53.667Z,100.00
2023-02-19T02:35:35.071Z,100.00
2023-02-19T02:38:07.481Z,100.00
2023-02-19T02:40:34.785Z,100.00
2023-02-19T02:43:01.249Z,100.00
2023-02-19T02:45:36.533Z,100.00
2023-02-19T02:48:12.343Z,100.00
2023-02-19T02:50:46.267Z,100.00
2023-02-19T02:53:43.727Z,100.00
2023-02-19T02:56:13.620Z,100.00
2023-02-19T02:58:40.755Z,100.00
2023-02-19T03:01:39.883Z,100.00
2023-02-19T03:04:12.390Z,100.00
2023-02-19T03:06:41.944Z,100.00
2023-02-19T03:09:13.301Z,100.00
2023-02-19T03:12:02.346Z,100.00
2023-02-19T03:14:58.704Z,100.00
2023-02-19T03:17:56.267Z,100.00
2023-02-19T03:20:24.805Z,100.00
2023-02-19T03:22:52.837Z,100.00
2023-02-19T03:25:42.859Z,100.00
2023-02-19T03:28:11.435Z,100.00
2023-02-19T03:30:43.636Z,100.00
2023-02-19T03:33:15.677Z,100.00
2023-02-19T03:35:47.486Z,100.00
2023-02-19T03:38:44.237Z,100.00
2023-02-19T03:41:19.431Z,100.00
2023-02-19T03:43:53.697Z,100.00
2023-02-19T03:46:28.417Z,100.00
2023-02-19T03:49:32.769Z,100.00
2023-02-19T03:52:08.129Z,100.00
2023-02-19T03:54:34.501Z,100.00
2023-02-19T03:57:09.037Z,100.00
2023-02-19T03:59:47.101Z,100.00
2023-02-19T04:02:36.288Z,100.00
2023-02-19T04:05:08.150Z,100.00
2023-02-19T04:07:40.048Z,100.00
2023-02-19T04:10:09.104Z,100.00
2023-02-19T04:12:41.583Z,100.00
2023-02-19T04:15:13.432Z,100.00
2023-02-19T04:17:46.714Z,100.00
2023-02-19T04:20:15.516Z,100.00
2023-02-19T04:22:42.176Z,100.00
2023-02-19T04:25:09.209Z,100.00
2023-02-19T04:27:39.764Z,100.00
2023-02-19T04:30:08.659Z,100.00
2023-02-19T04:32:35.148Z,100.00
2023-02-19T04:35:01.615Z,100.00
2023-02-19T04:37:28.069Z,100.00
2023-02-19T04:39:54.499Z,100.00
2023-02-19T04:42:20.921Z,100.00
2023-02-19T04:44:47.345Z,100.00
2023-02-19T04:47:13.811Z,100.00
2023-02-19T04:49:40.253Z,100.00
2023-02-19T04:52:06.730Z,100.00
2023-02-19T04:54:33.147Z,100.00
2023-02-19T04:56:59.572Z,100.00
2023-02-19T04:59:26.054Z,100.00
2023-02-19T05:01:52.515Z,100.00
2023-02-19T05:04:19.112Z,100.00
2023-02-19T05:06:45.522Z,100.00
2023-02-19T05:09:12.027Z,100.00
2023-02-19T05:11:38.480Z,100.00
2023-02-19T05:14:05.008Z,100.00
2023-02-19T05:16:31.507Z,100.00
2023-02-19T05:18:57.971Z,100.00
2023-02-19T05:21:24.817Z,100.00
2023-02-19T05:23:51.388Z,100.00
2023-02-19T05:26:22.517Z,100.00
2023-02-19T05:28:52.566Z,100.00
2023-02-19T05:31:19.941Z,100.00
2023-02-19T05:33:50.933Z,100.00
2023-02-19T05:36:19.640Z,100.00
2023-02-19T05:38:46.391Z,100.00
2023-02-19T05:41:18.310Z,100.00
2023-02-19T05:43:46.064Z,100.00
2023-02-19T05:46:15.154Z,100.00
2023-02-19T05:48:42.000Z,100.00
2023-02-19T05:51:14.106Z,100.00
2023-02-19T05:53:41.328Z,100.00
2023-02-19T05:56:26.085Z,100.00
2023-02-19T05:58:54.506Z,100.00
2023-02-19T06:01:22.926Z,100.00
2023-02-19T06:03:49.420Z,100.00
2023-02-19T06:06:18.264Z,100.00
2023-02-19T06:08:45.580Z,100.00
2023-02-19T06:11:12.368Z,100.00
2023-02-19T06:13:39.184Z,100.00
2023-02-19T06:16:07.677Z,100.00
2023-02-19T06:18:34.534Z,100.00
2023-02-19T06:21:02.500Z,100.00
2023-02-19T06:23:29.692Z,100.00
2023-02-19T06:26:05.498Z,100.00
2023-02-19T06:28:31.929Z,100.00
2023-02-19T06:30:58.905Z,100.00
2023-02-19T06:33:26.831Z,100.00
2023-02-19T06:35:53.369Z,100.00
2023-02-19T06:38:21.466Z,100.00
2023-02-19T06:40:47.935Z,100.00
2023-02-19T06:43:14.366Z,100.00
2023-02-19T06:45:40.820Z,100.00
2023-02-19T06:48:07.252Z,100.00
2023-02-19T06:50:33.701Z,100.00
2023-02-19T06:53:00.172Z,100.00
2023-02-19T06:55:26.630Z,100.00
2023-02-19T06:57:53.069Z,100.00
2023-02-19T07:00:19.620Z,100.00
2023-02-19T07:02:46.066Z,100.00
2023-02-19T07:05:12.606Z,100.00
2023-02-19T07:07:39.048Z,100.00
2023-02-19T07:10:05.901Z,100.00
2023-02-19T07:12:32.359Z,100.00
2023-02-19T07:14:58.793Z,100.00
2023-02-19T07:17:25.263Z,100.00
2023-02-19T07:19:51.685Z,100.00
2023-02-19T07:22:18.119Z,100.00
2023-02-19T07:24:46.867Z,100.00
2023-02-19T07:27:14.198Z,100.00
2023-02-19T07:29:47.375Z,100.00
2023-02-19T07:32:13.806Z,100.00
2023-02-19T07:34:40.298Z,100.00
2023-02-19T07:37:06.747Z,100.00
2023-02-19T07:39:33.178Z,100.00
2023-02-19T07:41:59.646Z,100.00
2023-02-19T07:44:26.078Z,100.00
2023-02-19T07:46:52.528Z,100.00
2023-02-19T07:49:19.106Z,100.00
2023-02-19T07:51:45.585Z,100.00
2023-02-19T07:54:12.499Z,100.00
2023-02-19T07:56:38.973Z,100.00
2023-02-19T07:59:05.447Z,100.00
2023-02-19T08:01:50.577Z,100.00
2023-02-19T08:04:17.077Z,100.00
2023-02-19T08:06:43.551Z,100.00
2023-02-19T08:09:10.324Z,100.00
2023-02-19T08:11:55.250Z,100.00
2023-02-19T08:14:26.211Z,100.00
2023-02-19T08:16:53.594Z,100.00
2023-02-19T08:19:20.789Z,100.00
2023-02-19T08:21:47.270Z,100.00
2023-02-19T08:24:13.712Z,100.00
2023-02-19T08:26:40.149Z,100.00
2023-02-19T08:29:06.722Z,100.00
2023-02-19T08:31:34.518Z,100.00
2023-02-19T08:34:01.079Z,100.00
2023-02-19T08:36:27.681Z,100.00
2023-02-19T08:38:54.267Z,100.00
2023-02-19T08:41:20.750Z,100.00
2023-02-19T08:43:47.263Z,98.70
2023-02-19T08:46:14.036Z,97.41
2023-02-19T08:48:40.961Z,96.80
2023-02-19T08:51:12.191Z,96.04
2023-02-19T08:53:40.055Z,95.52
2023-02-19T08:56:12.874Z,95.21
2023-02-19T08:58:39.682Z,95.11
2023-02-19T09:01:11.535Z,94.65
2023-02-19T09:03:38.292Z,94.38
2023-02-19T09:06:05.200Z,93.93
2023-02-19T09:08:31.820Z,93.91
2023-02-19T09:11:03.504Z,93.32
2023-02-19T09:13:30.396Z,93.71
2023-02-19T09:15:57.298Z,94.11
2023-02-19T09:18:25.138Z,93.29
2023-02-19T09:20:51.589Z,94.27
2023-02-19T09:23:18.038Z,94.38
2023-02-19T09:25:44.540Z,95.20
2023-02-19T09:28:11.025Z,96.32
2023-02-19T09:30:37.524Z,96.44
2023-02-19T09:33:06.065Z,96.40
2023-02-19T09:35:32.505Z,96.90
2023-02-19T09:38:03.136Z,97.11
2023-02-19T09:40:30.143Z,98.18
2023-02-19T09:42:56.786Z,97.85
2023-02-19T09:45:25.250Z,98.16
2023-02-19T09:47:57.721Z,98.07
2023-02-19T09:50:43.827Z,98.34
2023-02-19T09:53:19.660Z,97.81
2023-02-19T09:55:46.166Z,97.82
2023-02-19T09:58:29.905Z,97.54
2023-02-19T10:01:00.025Z,97.89
2023-02-19T10:03:35.994Z,97.80
2023-02-19T10:06:10.187Z,98.92
2023-02-19T10:08:40.134Z,99.97
2023-02-19T10:11:07.546Z,100.00
2023-02-19T10:13:55.823Z,99.60
2023-02-19T10:16:28.148Z,99.01
2023-02-19T10:18:54.683Z,99.00
2023-02-19T10:21:24.603Z,98.83
2023-02-19T10:23:55.491Z,98.55
2023-02-19T10:26:23.025Z,98.80
2023-02-19T10:28:49.535Z,99.10
2023-02-19T10:31:20.946Z,99.99
2023-02-19T10:33:53.118Z,100.00
2023-02-19T10:36:32.573Z,99.51
2023-02-19T10:39:01.874Z,98.28
2023-02-19T10:41:29.552Z,98.40
2023-02-19T10:44:09.834Z,98.32
2023-02-19T10:46:46.998Z,95.51
2023-02-19T10:49:48.966Z,95.84
2023-02-19T10:52:21.129Z,94.56
2023-02-19T10:54:53.245Z,94.11
2023-02-19T10:57:19.638Z,93.76
2023-02-19T10:59:51.936Z,94.05
2023-02-19T11:02:20.462Z,93.61
2023-02-19T11:05:11.973Z,93.97
2023-02-19T11:07:44.596Z,94.72
2023-02-19T11:10:23.788Z,93.96
2023-02-19T11:12:52.425Z,94.50
2023-02-19T11:15:51.231Z,94.66
2023-02-19T11:18:36.115Z,95.26
2023-02-19T11:21:05.113Z,95.08
2023-02-19T11:23:38.393Z,94.84
2023-02-19T11:26:15.946Z,93.68
2023-02-19T11:28:43.201Z,93.24
2023-02-19T11:31:19.744Z,93.06
2023-02-19T11:34:02.376Z,92.94
2023-02-19T11:36:33.272Z,91.37
2023-02-19T11:39:17.944Z,90.01
2023-02-19T11:42:12.544Z,91.14
2023-02-19T11:44:55.249Z,90.85
2023-02-19T11:47:48.596Z,90.05
2023-02-19T11:50:22.633Z,90.19
2023-02-19T11:53:16.522Z,90.00
2023-02-19T11:56:12.159Z,87.26
2023-02-19T11:58:50.606Z,87.52
2023-02-19T12:01:44.745Z,88.83
2023-02-19T12:04:20.143Z,88.29
2023-02-19T12:06:52.665Z,85.49
2023-02-19T12:09:37.040Z,86.35
2023-02-19T12:12:22.421Z,83.30
2023-02-19T12:15:20.692Z,84.09
2023-02-19T12:18:08.988Z,84.31
2023-02-19T12:20:49.850Z,82.83
2023-02-19T12:23:19.354Z,83.01
2023-02-19T12:26:00.648Z,83.97
2023-02-19T12:28:39.498Z,85.63
2023-02-19T12:31:44.214Z,84.99
2023-02-19T12:34:10.574Z,86.35
2023-02-19T12:37:14.456Z,87.21
2023-02-19T12:39:40.820Z,86.96
2023-02-19T12:42:35.138Z,87.75
2023-02-19T12:45:21.558Z,87.93
2023-02-19T12:48:06.276Z,86.57
2023-02-19T12:50:35.231Z,87.77
2023-02-19T12:53:08.085Z,86.55
2023-02-19T12:55:43.221Z,86.02
2023-02-19T12:58:32.475Z,84.69
2023-02-19T13:00:59.808Z,83.82
2023-02-19T13:03:37.806Z,82.88
2023-02-19T13:06:31.451Z,84.56
2023-02-19T13:09:07.626Z,83.42
2023-02-19T13:11:44.116Z,83.92
2023-02-19T13:14:24.009Z,84.60
2023-02-19T13:17:00.357Z,84.95
2023-02-19T13:19:26.873Z,84.91
2023-02-19T13:22:26.064Z,85.16
2023-02-19T13:24:54.505Z,84.22
2023-02-19T13:27:43.502Z,84.57
2023-02-19T13:30:13.707Z,84.37
2023-02-19T13:33:24.689Z,84.32
2023-02-19T13:36:06.087Z,84.96
2023-02-19T13:38:38.202Z,84.74
2023-02-19T13:41:05.040Z,83.97
2023-02-19T13:43:38.858Z,85.50
2023-02-19T13:46:09.306Z,85.44
2023-02-19T13:48:41.138Z,86.39
2023-02-19T13:51:21.550Z,86.79
2023-02-19T13:53:48.163Z,88.33
2023-02-19T13:56:30.045Z,88.87
2023-02-19T13:59:21.234Z,90.62
2023-02-19T14:01:53.661Z,91.54
2023-02-19T14:04:20.089Z,92.39
2023-02-19T14:07:04.686Z,94.06
2023-02-19T14:09:37.199Z,94.21
2023-02-19T14:12:15.021Z,95.01
2023-02-19T14:14:55.627Z,95.16
2023-02-19T14:17:38.663Z,94.86
2023-02-19T14:20:17.018Z,94.63
2023-02-19T14:22:46.915Z,94.32
2023-02-19T14:25:31.983Z,95.24
2023-02-19T14:28:01.626Z,94.75
2023-02-19T14:30:29.609Z,94.10
2023-02-19T14:33:09.845Z,93.96
2023-02-19T14:35:45.955Z,94.30
2023-02-19T14:38:24.760Z,93.65
2023-02-19T14:40:53.182Z,93.96
2023-02-19T14:43:22.354Z,94.00
2023-02-19T14:46:03.006Z,93.95
2023-02-19T14:48:41.691Z,94.45
2023-02-19T14:51:16.074Z,93.93
2023-02-19T14:53:45.077Z,94.34
2023-02-19T14:56:25.168Z,94.56
2023-02-19T14:59:11.813Z,94.54
2023-02-19T15:01:38.928Z,93.82
2023-02-19T15:04:06.578Z,93.82
2023-02-19T15:06:35.874Z,92.47
2023-02-19T15:09:07.188Z,92.14
2023-02-19T15:11:35.204Z,91.73
2023-02-19T15:14:07.709Z,92.15
2023-02-19T15:16:36.221Z,92.22
2023-02-19T15:19:07.852Z,92.95
2023-02-19T15:21:38.968Z,93.13
2023-02-19T15:24:06.910Z,93.86
2023-02-19T15:26:36.599Z,94.04
2023-02-19T15:29:12.441Z,94.24
2023-02-19T15:31:45.761Z,94.54
2023-02-19T15:34:21.076Z,94.22
2023-02-19T15:36:50.554Z,94.72
2023-02-19T15:39:24.205Z,94.50
2023-02-19T15:41:59.109Z,95.04
2023-02-19T15:44:39.972Z,94.41
2023-02-19T15:47:33.333Z,94.68
2023-02-19T15:50:08.855Z,94.79
2023-02-19T15:52:35.242Z,94.74
2023-02-19T15:55:16.573Z,94.14
2023-02-19T15:57:48.094Z,93.65
2023-02-19T16:00:26.129Z,93.64
2023-02-19T16:02:52.752Z,93.25
2023-02-19T16:05:29.197Z,92.94
2023-02-19T16:08:11.033Z,92.91
2023-02-19T16:10:38.394Z,92.21
2023-02-19T16:13:08.144Z,91.92
2023-02-19T16:15:35.727Z,91.28
2023-02-19T16:18:02.409Z,90.76
2023-02-19T16:20:32.731Z,91.34
2023-02-19T16:23:02.786Z,91.09
2023-02-19T16:25:44.168Z,90.85
2023-02-19T16:28:24.000Z,90.87
2023-02-19T16:30:59.246Z,90.26
2023-02-19T16:33:48.202Z,90.79
2023-02-19T16:36:33.175Z,90.95
2023-02-19T16:39:03.052Z,90.80
2023-02-19T16:41:29.718Z,90.32
2023-02-19T16:43:56.175Z,89.99
2023-02-19T16:46:22.739Z,89.53
2023-02-19T16:48:50.323Z,88.62
2023-02-19T16:51:35.038Z,87.74
2023-02-19T16:54:01.482Z,86.57
2023-02-19T16:56:27.904Z,86.35
2023-02-19T16:58:54.354Z,86.53
2023-02-19T17:01:20.889Z,86.97
2023-02-19T17:03:47.846Z,87.27
2023-02-19T17:06:15.834Z,85.63
2023-02-19T17:08:44.213Z,84.72
2023-02-19T17:11:13.792Z,83.97
2023-02-19T17:13:41.658Z,83.59
2023-02-19T17:16:16.882Z,83.88
2023-02-19T17:18:43.475Z,83.87
2023-02-19T17:21:30.544Z,84.22
2023-02-19T17:23:57.337Z,84.47
2023-02-19T17:26:29.571Z,84.51
2023-02-19T17:28:57.576Z,85.91
2023-02-19T17:31:24.244Z,85.57
2023-02-19T17:33:51.734Z,85.15
2023-02-19T17:36:21.301Z,85.25
2023-02-19T17:38:47.898Z,84.64
2023-02-19T17:41:14.397Z,84.44
2023-02-19T17:43:40.901Z,84.81
2023-02-19T17:46:13.808Z,84.21
2023-02-19T17:48:40.297Z,84.24
2023-02-19T17:51:06.901Z,82.91
2023-02-19T17:53:33.343Z,84.24
2023-02-19T17:55:59.822Z,83.18
2023-02-19T17:58:26.338Z,83.42
2023-02-19T18:00:52.932Z,82.66
2023-02-19T18:03:19.575Z,83.45
2023-02-19T18:05:46.000Z,82.96
2023-02-19T18:08:12.965Z,84.35
2023-02-19T18:10:39.485Z,82.74
2023-02-19T18:13:06.932Z,83.06
2023-02-19T18:15:33.559Z,82.93
2023-02-19T18:17:59.993Z,83.27
2023-02-19T18:20:28.352Z,83.85
2023-02-19T18:22:56.142Z,83.30
2023-02-19T18:25:22.941Z,83.10
2023-02-19T18:27:49.854Z,83.24
2023-02-19T18:30:19.002Z,82.68
2023-02-19T18:32:48.619Z,82.69
2023-02-19T18:35:17.042Z,83.62
2023-02-19T18:37:43.473Z,82.34
2023-02-19T18:40:10.697Z,81.39
2023-02-19T18:42:37.216Z,81.35
2023-02-19T18:45:04.231Z,80.50
2023-02-19T18:47:30.693Z,80.85
2023-02-19T18:49:58.690Z,80.91
2023-02-19T18:52:26.851Z,80.15
2023-02-19T18:54:55.566Z,81.09
2023-02-19T18:57:23.614Z,80.43
2023-02-19T18:59:50.584Z,81.27
2023-02-19T19:02:17.626Z,81.28
2023-02-19T19:04:50.032Z,80.94
2023-02-19T19:07:17.080Z,81.25
2023-02-19T19:09:43.623Z,82.13
2023-02-19T19:12:10.142Z,81.21
2023-02-19T19:14:37.313Z,80.75
2023-02-19T19:17:04.193Z,80.11
2023-02-19T19:19:30.627Z,79.95
2023-02-19T19:21:57.384Z,79.92
2023-02-19T19:24:24.993Z,78.83
2023-02-19T19:26:52.423Z,78.73
2023-02-19T19:29:22.051Z,78.78
2023-02-19T19:31:49.454Z,78.65
2023-02-19T19:34:16.721Z,79.66
2023-02-19T19:36:43.665Z,79.18
2023-02-19T19:39:10.191Z,79.94
2023-02-19T19:41:36.664Z,80.86
2023-02-19T19:44:05.339Z,81.27
2023-02-19T19:46:32.660Z,80.63
2023-02-19T19:48:59.329Z,81.52
2023-02-19T19:51:35.493Z,81.53
2023-02-19T19:54:04.137Z,81.15
2023-02-19T19:56:31.486Z,81.92
2023-02-19T19:58:57.920Z,81.73
2023-02-19T20:01:24.558Z,82.03
2023-02-19T20:03:51.264Z,82.45
2023-02-19T20:06:29.238Z,82.38
2023-02-19T20:08:55.855Z,83.07
2023-02-19T20:11:22.776Z,83.00
2023-02-19T20:13:49.584Z,83.28
2023-02-19T20:16:16.146Z,83.40
2023-02-19T20:18:42.671Z,83.20
2023-02-19T20:21:10.615Z,83.67
2023-02-19T20:23:40.323Z,83.80
2023-02-19T20:26:06.964Z,83.97
2023-02-19T20:28:33.509Z,84.26
2023-02-19T20:31:02.432Z,84.42
2023-02-19T20:33:28.954Z,84.45
2023-02-19T20:35:56.933Z,84.60
2023-02-19T20:38:23.370Z,84.21
2023-02-19T20:40:49.834Z,84.30
2023-02-19T20:43:16.281Z,84.09
2023-02-19T20:45:45.738Z,84.26
2023-02-19T20:48:15.219Z,83.91
2023-02-19T20:50:41.729Z,84.09
2023-02-19T20:53:08.671Z,84.31
2023-02-19T20:55:35.143Z,84.83
2023-02-19T20:58:02.135Z,84.67
2023-02-19T21:00:28.591Z,84.58
2023-02-19T21:02:55.040Z,84.94
2023-02-19T21:05:21.707Z,85.00
2023-02-19T21:07:48.263Z,85.26
2023-02-19T21:10:14.786Z,85.25
2023-02-19T21:12:42.093Z,85.68
2023-02-19T21:15:09.040Z,85.96
2023-02-19T21:17:35.552Z,86.26
2023-02-19T21:20:02.078Z,86.82
2023-02-19T21:22:28.515Z,86.67
2023-02-19T21:24:55.001Z,86.50
2023-02-19T21:27:21.488Z,86.73
2023-02-19T21:29:47.911Z,87.82
2023-02-19T21:32:14.829Z,87.79
2023-02-19T21:34:42.444Z,87.89
2023-02-19T21:37:08.873Z,88.50
2023-02-19T21:39:35.330Z,89.32
2023-02-19T21:42:02.560Z,89.69
2023-02-19T21:44:29.012Z,90.18
2023-02-19T21:46:55.825Z,90.65
2023-02-19T21:49:22.381Z,91.02
2023-02-19T21:51:49.630Z,91.30
2023-02-19T21:54:19.156Z,91.39
2023-02-19T21:56:45.629Z,91.49
2023-02-19T21:59:12.687Z,91.65
2023-02-19T22:01:39.868Z,91.91
2023-02-19T22:04:07.952Z,92.32
2023-02-19T22:06:35.060Z,92.58
2023-02-19T22:09:01.749Z,93.01
2023-02-19T22:11:28.764Z,93.61
2023-02-19T22:13:55.237Z,93.85
2023-02-19T22:16:21.837Z,93.93
2023-02-19T22:18:50.225Z,94.07
2023-02-19T22:21:17.018Z,94.22
2023-02-19T22:23:48.266Z,93.97
2023-02-19T22:26:19.158Z,94.14
2023-02-19T22:28:47.653Z,94.19
2023-02-19T22:31:16.111Z,94.36
2023-02-19T22:33:42.971Z,94.67
2023-02-19T22:36:17.715Z,95.26
2023-02-19T22:38:44.323Z,95.51
2023-02-19T22:41:11.494Z,95.18
2023-02-19T22:43:37.908Z,95.27
2023-02-19T22:46:08.554Z,95.08
2023-02-19T22:48:34.990Z,95.39
2023-02-19T22:51:02.375Z,94.83
2023-02-19T22:53:28.843Z,95.15
2023-02-19T22:55:55.229Z,94.92
2023-02-19T22:58:21.648Z,95.23
2023-02-19T23:00:48.101Z,95.11
2023-02-19T23:03:14.642Z,95.19
2023-02-19T23:05:41.065Z,95.59
2023-02-19T23:08:07.477Z,96.48
2023-02-19T23:10:34.342Z,95.34
2023-02-19T23:13:00.923Z,96.42
2023-02-19T23:15:27.357Z,97.23
2023-02-19T23:17:53.813Z,97.26
2023-02-19T23:20:20.254Z,97.77
2023-02-19T23:22:46.718Z,97.48
2023-02-19T23:25:13.359Z,96.07
2023-02-19T23:27:39.814Z,95.65
2023-02-19T23:30:07.342Z,94.89
2023-02-19T23:32:33.780Z,94.52
2023-02-19T23:35:00.275Z,94.75
2023-02-19T23:37:26.733Z,94.60
2023-02-19T23:39:53.420Z,94.42
2023-02-19T23:42:19.905Z,95.50
2023-02-19T23:44:47.066Z,95.21
2023-02-19T23:47:14.214Z,94.99
2023-02-19T23:49:40.980Z,95.91
2023-02-19T23:52:09.198Z,98.74
2023-02-19T23:54:35.612Z,99.99
2023-02-19T23:57:02.060Z,100.00
2023-02-19T23:59:28.544Z,100.00
